Flight Track Log - Related Links

Times and Time Zones

All times are in EST time to prevent confusion due to time zone crossing. See the EJA749 flight status page for this flight to view local times or setup timezone preferences in your user account.

Time Position Orientation Groundspeed Altitude Reporting Facility
EST Latitude Longitude Course Direction KTS MPH feet Rate Location/Type
Fri 12:59:02 PM 26.5053 -80.0394 20° North 220 253 4,900  Level Miami Center
Fri 01:00:02 PM 26.5856 -79.9997 24° Northeast 266 306 8,700 3,050 Climbing Miami Center
Fri 01:01:02 PM 26.6553 -79.9644 24° Northeast 288 331 11,000 2,750 Climbing Miami Center
Fri 01:02:00 PM 26.9438 -79.9070 53° Northeast  Level Estimated
Fri 01:02:02 PM 26.7525 -79.9111 26° Northeast 327 376 14,200  Level Miami Center
Fri 01:03:00 PM 27.0568 -79.8666 69° East  Level Estimated
Fri 01:03:02 PM 26.8394 -79.8414 36° Northeast 376 433 17,100  Level Miami Center
Fri 01:04:02 PM 26.9000 -79.7450 55° Northeast 395 455 19,500 2,600 Climbing Miami Center
Fri 01:05:02 PM 26.9772 -79.6281 53° Northeast 421 484 22,300 1,750 Climbing Miami Center
Fri 01:06:02 PM 27.0525 -79.5108 54° Northeast 439 505 23,000 350 Climbing Miami Center
Fri 01:07:02 PM 27.1319 -79.3892 54° Northeast 471 542 23,000  Level Miami Center
Fri 01:08:02 PM 27.2092 -79.2739 53° Northeast 497 572 23,000 350 Level Miami Center
Fri 01:09:02 PM 27.2864 -79.1469 56° Northeast 497 572 23,700 1,050 Climbing Miami Center
Fri 01:10:02 PM 27.3847 -79.0039 52° Northeast 503 579 25,100 1,400 Climbing Miami Center
Fri 01:11:02 PM 27.5047 -78.9358 27° Northeast 488 562 26,500 1,550 Climbing Miami Center
Fri 01:12:02 PM 27.6386 -78.9147 North 469 540 28,200 1,750 Climbing Miami Center
Fri 01:13:02 PM 27.7622 -78.8983 North 469 540 30,000 1,800 Climbing Miami Center
Fri 01:14:02 PM 27.8939 -78.8794 North 469 540 31,800 1,850 Climbing Miami Center
Fri 01:15:02 PM 28.0214 -78.8631 North 469 540 33,700 1,800 Climbing Miami Center
Fri 01:16:02 PM 28.1492 -78.8417 North 464 534 35,400 1,650 Climbing Miami Center
Fri 01:17:02 PM 28.2767 -78.8228 North 464 534 37,000 1,500 Climbing Miami Center
Fri 01:18:02 PM 28.4044 -78.8061 North 464 534 38,400 1,000 Climbing Miami Center
Fri 01:19:02 PM 28.5297 -78.7892 North 464 534 39,000 300 Climbing Miami Center
Fri 01:20:02 PM 28.6489 -78.7700 North 451 519 39,000  Level Miami Center
Fri 01:21:02 PM 28.7722 -78.7556 North 443 510 39,000  Level Miami Center
Fri 01:22:02 PM 28.8872 -78.7361 North 431 496 39,000  Level Miami Center
Fri 01:23:02 PM 29.0106 -78.7169 North 431 496 39,000  Level Miami Center
Fri 01:24:02 PM 29.1361 -78.6978 North 438 504 39,000  Level Miami Center
Fri 01:25:02 PM 29.2594 -78.6808 North 443 510 39,000  Level Miami Center
Fri 01:26:02 PM 29.3556 -78.6706 North 443 510 39,000  Level Miami Center
Fri 01:27:02 PM 29.4936 -78.6417 10° North 437 503 39,000  Level Miami Center
Fri 01:28:02 PM 29.6208 -78.6319 North 429 494 39,000  Level Miami Center
Fri 01:29:29 PM 29.7786 -78.5953 11° North 423 487 39,000  Level Jacksonville Center
Fri 01:30:29 PM 29.9158 -78.5747 North 438 504 39,000  Level Jacksonville Center
Fri 01:31:29 PM 30.0364 -78.5622 North 438 504 39,000  Level Jacksonville Center
Fri 01:32:29 PM 30.1481 -78.5331 13° North 429 494 39,000  Level Jacksonville Center
Fri 01:33:29 PM 30.2689 -78.5253 North 422 486 39,000  Level Jacksonville Center
Fri 01:34:29 PM 30.3936 -78.5075 North 429 494 39,000  Level Jacksonville Center
Fri 01:35:29 PM 30.5119 -78.4900 North 433 498 39,000  Level Jacksonville Center
Fri 01:36:29 PM 30.6303 -78.4725 North 427 491 39,000  Level Jacksonville Center
Fri 01:37:29 PM 30.7569 -78.4522 North 456 525 39,000  Level Jacksonville Center
Fri 01:38:29 PM 30.8900 -78.4339 North 472 543 39,000  Level Jacksonville Center
Fri 01:39:29 PM 31.0019 -78.4164 North 467 537 39,000  Level Jacksonville Center
Fri 01:40:29 PM 31.1347 -78.3956 North 467 537 39,000  Level Jacksonville Center
Fri 01:41:29 PM 31.2697 -78.3719 North 472 543 39,000  Level Jacksonville Center
Fri 01:42:29 PM 31.4025 -78.3486 North 477 549 39,000  Level Jacksonville Center
Fri 01:43:29 PM 31.5311 -78.3300 North 472 543 39,000  Level Jacksonville Center
Fri 01:44:29 PM 31.6619 -78.3089 North 477 549 39,000  Level Jacksonville Center
Fri 01:45:29 PM 31.7947 -78.2878 North 477 549 39,000  Level Jacksonville Center
Fri 01:46:29 PM 31.9236 -78.2692 North 477 549 39,000  Level Jacksonville Center
Fri 01:47:29 PM 32.0706 -78.2397 10° North 478 550 39,000  Level Jacksonville Center
Fri 01:48:29 PM 32.2036 -78.2206 North 478 550 39,000  Level Jacksonville Center
Fri 01:49:29 PM 32.3383 -78.1989 North 483 556 39,000  Level Jacksonville Center
Fri 01:50:29 PM 32.4714 -78.1822 North 483 556 39,000  Level Jacksonville Center
Fri 01:51:29 PM 32.6039 -78.1581 North 478 550 39,000  Level Jacksonville Center
Fri 01:52:29 PM 32.7369 -78.1389 North 478 550 39,000  Level Jacksonville Center
Fri 01:53:29 PM 32.8694 -78.1144 North 478 550 39,000  Level Jacksonville Center
Fri 01:54:29 PM 33.0044 -78.0950 North 478 550 39,000  Level Jacksonville Center
Fri 01:55:29 PM 33.1392 -78.0728 North 478 550 39,000  Level Jacksonville Center
Fri 01:56:29 PM 33.2761 -78.0506 North 483 556 39,000  Level Jacksonville Center
Fri 01:57:29 PM 33.4108 -78.0283 North 483 556 39,000  Level Jacksonville Center
Fri 01:58:49 PM 33.5717 -78.0042 North 481 554 39,000  Level Washington Center
Fri 01:59:47 PM 33.7078 -77.9808 North 481 554 39,000  Level Washington Center
Fri 02:00:48 PM 33.8375 -77.9594 North 481 554 39,000  Level Washington Center
Fri 02:01:48 PM 33.9800 -77.9358 North 493 567 39,000  Level Washington Center
Fri 02:02:49 PM 34.1161 -77.9122 North 493 567 39,000  Level Washington Center
Fri 02:03:49 PM 34.2475 -77.9008 North 487 560 39,000  Level Washington Center
Fri 02:04:47 PM 34.3978 -77.9000 360° North 487 560 39,000  Level Washington Center
Fri 02:05:48 PM 34.5314 -77.8986 360° North 481 554 39,000  Level Washington Center
Fri 02:06:49 PM 34.6631 -77.8950 North 476 548 39,000  Level Washington Center
Fri 02:07:47 PM 34.7986 -77.8936 360° North 476 548 39,000  Level Washington Center
Fri 02:08:47 PM 34.9322 -77.8872 North 476 548 39,000  Level Washington Center
Fri 02:09:48 PM 35.0681 -77.8836 North 476 548 39,000  Level Washington Center
Fri 02:10:49 PM 35.2058 -77.8772 North 482 555 39,000  Level Washington Center
Fri 02:11:49 PM 35.3436 -77.8761 360° North 482 555 39,000  Level Washington Center
Fri 02:12:47 PM 35.4814 -77.8722 North 482 555 39,000  Level Washington Center
Fri 02:13:47 PM 35.6192 -77.8686 North 487 560 39,000  Level Washington Center
Fri 02:14:48 PM 35.7569 -77.8675 360° North 487 560 39,000  Level Washington Center
Fri 02:15:48 PM 35.8989 -77.8639 North 493 567 39,000  Level Washington Center
Fri 02:16:49 PM 36.0386 -77.8603 North 493 567 39,000  Level Washington Center
Fri 02:17:49 PM 36.1764 -77.8589 360° North 493 567 39,000  Level Washington Center
Fri 02:18:47 PM 36.3203 -77.8553 North 500 575 39,000  Level Washington Center
Fri 02:19:48 PM 36.4392 -77.8561 360° North 500 575 39,000  Level Washington Center
Fri 02:20:49 PM 36.5792 -77.8525 North 493 567 39,000  Level Washington Center
Fri 02:21:50 PM 36.7147 -77.8486 North 493 567 39,000  Level Washington Center
Fri 02:22:48 PM 36.8525 -77.8450 North 493 567 39,000  Level Washington Center
Fri 02:23:49 PM 36.9883 -77.8411 North 493 567 39,000  Level Washington Center
Fri 02:24:49 PM 37.1239 -77.8397 360° North 488 562 39,000  Level Washington Center
Fri 02:25:47 PM 37.2642 -77.8100 10° North 488 562 39,000  Level Washington Center
Fri 02:26:48 PM 37.3953 -77.7092 31° Northeast 511 588 39,000  Level Washington Center
Fri 02:27:49 PM 37.5225 -77.6003 34° Northeast 524 603 39,000  Level Washington Center
Fri 02:28:47 PM 37.6472 -77.4881 35° Northeast 545 627 39,000  Level Washington Center
Fri 02:29:47 PM 37.7742 -77.3783 34° Northeast 545 627 39,000  Level Washington Center
Fri 02:30:48 PM 37.8986 -77.2708 34° Northeast 545 627 39,000  Level Washington Center
Fri 02:31:48 PM 38.0253 -77.1708 32° Northeast 545 627 39,000  Level Washington Center
Fri 02:32:48 PM 38.1528 -77.1469 North 494 568 39,000  Level Washington Center
Fri 02:33:49 PM 38.2736 -77.1600 355° North 440 506 39,000 -950 Level Washington Center
Fri 02:34:48 PM 38.3839 -77.1731 355° North 435 501 37,100 -1,815 Descending Washington Center
Fri 02:35:48 PM 38.5300 -77.1656 North 440 506 35,400 -1,488 Descending Washington Center
Fri 02:36:49 PM 38.6561 -77.0750 29° Northeast 470 541 34,100 -1,765 Descending Washington Center
Fri 02:37:47 PM 38.7681 -76.9442 42° Northeast 497 572 31,900 -2,269 Descending Washington Center
Fri 02:38:48 PM 38.8717 -76.8261 42° Northeast 498 573 29,600 -2,262 Descending Washington Center
Fri 02:39:49 PM 38.9644 -76.7183 42° Northeast 474 545 27,300 -1,785 Descending Washington Center
Fri 02:40:49 PM 39.0342 -76.5911 55° Northeast 427 491 26,000 -1,220 Descending Washington Center
Fri 02:41:47 PM 39.0792 -76.4472 68° East 427 491 24,900 -1,017 Descending Washington Center
Fri 02:42:47 PM 39.1217 -76.3006 69° East 427 491 24,000 -446 Descending Washington Center
Fri 02:43:48 PM 39.1911 -76.1781 54° Northeast 427 491 24,000  Level Washington Center
Fri 02:44:49 PM 39.2833 -76.0794 40° Northeast 422 486 24,000 -892 Level Washington Center
Fri 02:47:03 PM 39.4833 -75.8833 37° Northeast 386 444 21,100 -1,670 Descending Philadelphia TRACON
Fri 02:48:03 PM 39.5833 -75.8000 33° Northeast 396 456 18,600 -2,400 Descending Philadelphia TRACON
Fri 02:49:03 PM 39.6667 -75.7167 38° Northeast 393 452 16,300 -2,263 Descending Philadelphia TRACON
Fri 02:49:57 PM 39.7500 -75.6500 32° Northeast 371 427 14,300 -1,684 Descending Philadelphia TRACON
Fri 02:50:57 PM 39.8333 -75.5667 38° Northeast 359 413 13,100 -650 Descending Philadelphia TRACON
Fri 02:51:57 PM 39.9000 -75.5000 37° Northeast 354 407 13,000  Descending Philadelphia TRACON
Fri 02:52:51 PM 39.9833 -75.4333 32° Northeast 354 407 13,100 50 Climbing Philadelphia TRACON
Fri 02:53:57 PM 40.0667 -75.3500 37° Northeast 363 418 13,100 -48 Level Philadelphia TRACON
Fri 02:54:57 PM 40.1500 -75.2833 31° Northeast 357 411 13,000 -1,040 Descending Philadelphia TRACON
Fri 02:56:50 PM 40.2833 -75.1333 41° Northeast 329 379 10,100 -1,621 Descending New York TRACON
Fri 02:57:51 PM 40.3500 -75.0667 37° Northeast 320 368 8,300 -1,550 Descending New York TRACON
Fri 02:58:50 PM 40.4167 -74.9833 44° Northeast 317 365 7,000 -1,100 Descending New York TRACON
Fri 02:59:51 PM 40.4667 -74.9000 52° Northeast 312 359 6,100 -1,200 Descending New York TRACON
Fri 03:00:50 PM 40.5333 -74.8167 44° Northeast 301 346 4,600 -1,050 Descending New York TRACON
Fri 03:01:51 PM 40.5833 -74.7333 52° Northeast 280 322 4,000 -298 Descending New York TRACON
Fri 03:02:51 PM 40.6500 -74.6667 37° Northeast 288 331 4,000  Level New York TRACON
Fri 03:03:51 PM 40.7167 -74.6167 30° Northeast 288 331 4,000  Level New York TRACON
Fri 03:04:51 PM 40.7833 -74.5667 30° Northeast 275 316 4,000  Level New York TRACON
Fri 03:05:51 PM 40.8500 -74.5167 30° Northeast 249 287 4,000  Level New York TRACON
Fri 03:06:51 PM 40.9000 -74.4833 27° Northeast 238 274 4,000 -48 Level New York TRACON
Fri 03:07:56 PM 40.9500 -74.4333 37° Northeast 219 252 3,900 -300 Descending New York TRACON
Fri 03:08:51 PM 41.0000 -74.4000 27° Northeast 203 234 3,400 -470 Descending New York TRACON
Fri 03:09:51 PM 41.0167 -74.3333 72° East 201 231 3,000 -200 Descending New York TRACON
Fri 03:10:51 PM 41.0167 -74.2500 90° East 193 222 3,000  Level New York TRACON
Fri 03:11:51 PM 41.0167 -74.1833 90° East 191 220 3,000 -150 Level New York TRACON
Fri 03:12:51 PM 41.0167 -74.1167 90° East 190 219 2,700 -500 Descending New York TRACON
Fri 03:13:51 PM 41.0167 -74.0667 90° East 174 200 2,000 -500 Descending New York TRACON
Fri 03:14:51 PM 40.9667 -74.0500 166° South 166 191 1,700 -288 Descending New York TRACON
Fri 03:15:56 PM 40.9333 -74.0500 180° South 130 150 1,400 -500 Descending New York TRACON
Fri 03:16:51 PM 40.8833 -74.0500 180° South 131 151 700 -764 Descending New York TRACON

Login

Don't have an account? Register now (free) for customized features, flight alerts, and more!